createdAt,value
2018-08-19T00:00:39.533Z,53.70
2018-08-19T00:03:05.571Z,53.65
2018-08-19T00:05:31.559Z,53.29
2018-08-19T00:07:57.638Z,52.98
2018-08-19T00:10:23.633Z,53.15
2018-08-19T00:12:49.643Z,54.05
2018-08-19T00:15:15.643Z,53.07
2018-08-19T00:17:41.744Z,54.00
2018-08-19T00:20:07.730Z,53.30
2018-08-19T00:22:33.689Z,53.25
2018-08-19T00:24:59.657Z,53.36
2018-08-19T00:27:25.696Z,53.98
2018-08-19T00:29:51.651Z,53.28
2018-08-19T00:32:17.926Z,53.78
2018-08-19T00:34:43.979Z,53.25
2018-08-19T00:37:09.941Z,53.91
2018-08-19T00:39:35.924Z,54.02
2018-08-19T00:42:01.949Z,53.55
2018-08-19T00:44:27.934Z,53.07
2018-08-19T00:46:53.931Z,53.41
2018-08-19T00:49:19.958Z,53.02
2018-08-19T00:51:45.951Z,54.22
2018-08-19T00:54:11.945Z,53.93
2018-08-19T00:56:37.928Z,53.28
2018-08-19T00:59:03.961Z,53.74
2018-08-19T01:01:29.936Z,54.11
2018-08-19T01:03:55.937Z,53.62
2018-08-19T01:06:21.948Z,53.88
2018-08-19T01:08:47.955Z,53.22
2018-08-19T01:11:13.967Z,53.37
2018-08-19T01:13:39.954Z,53.62
2018-08-19T01:16:05.969Z,53.68
2018-08-19T01:18:31.953Z,53.82
2018-08-19T01:20:57.925Z,53.40
2018-08-19T01:23:23.937Z,53.79
2018-08-19T01:25:49.909Z,54.02
2018-08-19T01:28:15.870Z,53.89
2018-08-19T01:30:41.855Z,54.30
2018-08-19T01:33:07.844Z,54.21
2018-08-19T01:35:33.841Z,53.56
2018-08-19T01:37:59.881Z,53.92
2018-08-19T01:40:25.900Z,53.32
2018-08-19T01:42:51.883Z,53.23
2018-08-19T01:45:17.830Z,53.29
2018-08-19T01:47:43.800Z,53.43
2018-08-19T01:50:09.799Z,54.11
2018-08-19T01:52:35.765Z,53.18
2018-08-19T01:55:01.773Z,53.06
2018-08-19T01:57:27.733Z,53.21
2018-08-19T01:59:53.761Z,53.31
2018-08-19T02:02:19.761Z,53.34
2018-08-19T02:04:45.766Z,54.15
2018-08-19T02:07:11.749Z,53.95
2018-08-19T02:09:37.772Z,53.07
2018-08-19T02:12:03.799Z,54.21
2018-08-19T02:14:29.794Z,53.21
2018-08-19T02:16:55.776Z,54.11
2018-08-19T02:19:21.799Z,54.04
2018-08-19T02:21:47.793Z,53.04
2018-08-19T02:24:13.988Z,53.24
2018-08-19T02:26:39.960Z,52.88
2018-08-19T02:29:05.937Z,54.15
2018-08-19T02:31:31.917Z,53.98
2018-08-19T02:33:57.912Z,53.34
2018-08-19T02:36:23.912Z,52.81
2018-08-19T02:38:50.915Z,53.30
2018-08-19T02:41:16.881Z,53.28
2018-08-19T02:43:42.906Z,53.50
2018-08-19T02:46:08.888Z,53.93
2018-08-19T02:48:34.902Z,54.18
2018-08-19T02:51:00.929Z,54.15
2018-08-19T02:53:27.001Z,53.58
2018-08-19T02:55:53.012Z,53.23
2018-08-19T02:58:18.982Z,54.21
2018-08-19T03:00:44.968Z,53.30
2018-08-19T03:03:10.940Z,53.73
2018-08-19T03:05:36.939Z,53.87
2018-08-19T03:08:02.927Z,52.96
2018-08-19T03:10:28.929Z,53.68
2018-08-19T03:12:54.910Z,53.86
2018-08-19T03:15:20.889Z,53.25
2018-08-19T03:17:46.870Z,53.04
2018-08-19T03:20:12.911Z,52.89
2018-08-19T03:22:38.920Z,52.85
2018-08-19T03:25:05.006Z,52.83
2018-08-19T03:27:31.003Z,53.27
2018-08-19T03:29:56.985Z,53.40
2018-08-19T03:32:23.024Z,53.42
2018-08-19T03:34:49.133Z,53.93
2018-08-19T03:37:15.145Z,53.36
2018-08-19T03:39:41.125Z,53.21
2018-08-19T03:42:07.112Z,54.02
2018-08-19T03:44:33.112Z,53.17
2018-08-19T03:46:59.084Z,53.15
2018-08-19T03:49:25.040Z,53.32
2018-08-19T03:51:51.034Z,53.16
2018-08-19T03:54:17.006Z,53.51
2018-08-19T03:56:42.994Z,53.63
2018-08-19T03:59:08.965Z,52.68
2018-08-19T04:01:34.973Z,53.12
2018-08-19T04:04:00.996Z,53.35
2018-08-19T04:06:27.014Z,53.86
2018-08-19T04:08:53.043Z,53.22
2018-08-19T04:11:19.038Z,53.17
2018-08-19T04:13:45.006Z,53.07
2018-08-19T04:16:10.985Z,53.21
2018-08-19T04:18:36.983Z,53.78
2018-08-19T04:21:02.950Z,53.30
2018-08-19T04:23:28.956Z,53.56
2018-08-19T04:25:54.953Z,53.46
2018-08-19T04:28:21.039Z,53.21
2018-08-19T04:30:47.182Z,52.77
2018-08-19T04:33:13.221Z,53.20
2018-08-19T04:35:39.179Z,53.78
2018-08-19T04:38:05.135Z,52.97
2018-08-19T04:40:31.095Z,53.20
2018-08-19T04:42:57.075Z,52.91
2018-08-19T04:45:23.058Z,53.58
2018-08-19T04:47:49.049Z,52.76
2018-08-19T04:50:15.033Z,52.96
2018-08-19T04:52:41.011Z,52.99
2018-08-19T04:55:06.983Z,53.69
2018-08-19T04:57:32.974Z,53.40
2018-08-19T04:59:58.950Z,53.03
2018-08-19T05:02:25.060Z,52.80
2018-08-19T05:04:50.972Z,53.86
2018-08-19T05:07:17.271Z,53.97
2018-08-19T05:09:43.311Z,53.59
2018-08-19T05:12:09.307Z,53.34
2018-08-19T05:14:35.335Z,53.54
2018-08-19T05:17:01.325Z,52.99
2018-08-19T05:19:27.282Z,53.12
2018-08-19T05:21:53.282Z,53.82
2018-08-19T05:24:19.224Z,52.97
2018-08-19T05:26:45.200Z,52.89
2018-08-19T05:29:11.168Z,54.11
2018-08-19T05:31:37.206Z,53.37
2018-08-19T05:34:03.133Z,53.85
2018-08-19T05:36:29.135Z,53.95
2018-08-19T05:38:55.119Z,53.64
2018-08-19T05:41:21.092Z,53.52
2018-08-19T05:43:47.108Z,54.30
2018-08-19T05:46:13.976Z,53.89
2018-08-19T05:48:39.944Z,53.41
2018-08-19T05:51:05.903Z,53.68
2018-08-19T05:53:31.874Z,53.69
2018-08-19T05:55:57.931Z,54.05
2018-08-19T05:58:23.908Z,53.81
2018-08-19T06:00:49.900Z,53.11
2018-08-19T06:03:15.891Z,53.85
2018-08-19T06:05:41.906Z,53.75
2018-08-19T06:08:07.938Z,53.23
2018-08-19T06:10:33.916Z,54.17
2018-08-19T06:12:59.900Z,53.20
2018-08-19T06:15:25.969Z,53.58
2018-08-19T06:17:51.939Z,54.15
2018-08-19T06:20:17.973Z,54.18
2018-08-19T06:22:43.952Z,52.84
2018-08-19T06:25:09.934Z,53.81
2018-08-19T06:27:36.175Z,54.02
2018-08-19T06:30:03.413Z,53.02
2018-08-19T06:32:29.405Z,53.67
2018-08-19T06:34:55.554Z,53.90
2018-08-19T06:37:21.361Z,53.93
2018-08-19T06:39:47.361Z,53.00
2018-08-19T06:42:13.364Z,52.87
2018-08-19T06:44:39.333Z,53.64
2018-08-19T06:47:05.311Z,53.23
2018-08-19T06:49:31.734Z,53.03
2018-08-19T06:51:57.707Z,53.75
2018-08-19T06:54:23.702Z,53.78
2018-08-19T06:56:49.679Z,53.55
2018-08-19T06:59:15.683Z,53.00
2018-08-19T07:01:41.910Z,53.32
2018-08-19T07:04:07.989Z,53.37
2018-08-19T07:06:33.904Z,53.40
2018-08-19T07:08:59.910Z,53.82
2018-08-19T07:11:25.923Z,53.23
2018-08-19T07:13:51.892Z,53.30
2018-08-19T07:16:17.965Z,52.28
2018-08-19T07:18:44.029Z,53.72
2018-08-19T07:21:10.033Z,52.93
2018-08-19T07:23:36.104Z,53.08
2018-08-19T07:26:02.056Z,53.03
2018-08-19T07:28:29.134Z,53.31
2018-08-19T07:30:55.201Z,53.34
2018-08-19T07:33:21.192Z,53.84
2018-08-19T07:35:47.224Z,53.47
2018-08-19T07:38:13.225Z,52.64
2018-08-19T07:40:39.188Z,52.99
2018-08-19T07:43:05.229Z,53.10
2018-08-19T07:45:31.265Z,53.64
2018-08-19T07:47:57.303Z,53.91
2018-08-19T07:50:23.278Z,53.51
2018-08-19T07:52:49.268Z,53.61
2018-08-19T07:55:15.287Z,52.84
2018-08-19T07:57:41.263Z,52.89
2018-08-19T08:00:08.553Z,52.92
2018-08-19T08:02:34.532Z,52.28
2018-08-19T08:05:00.539Z,52.70
2018-08-19T08:07:26.513Z,53.47
2018-08-19T08:09:52.505Z,52.27
2018-08-19T08:12:18.471Z,52.34
2018-08-19T08:14:44.458Z,52.66
2018-08-19T08:17:10.407Z,53.22
2018-08-19T08:19:36.398Z,54.08
2018-08-19T08:22:02.345Z,54.51
2018-08-19T08:24:28.327Z,53.06
2018-08-19T08:26:54.316Z,53.28
2018-08-19T08:29:20.403Z,53.51
2018-08-19T08:31:46.481Z,54.19
2018-08-19T08:34:12.566Z,53.80
2018-08-19T08:36:38.504Z,53.97
2018-08-19T08:39:04.506Z,53.20
2018-08-19T08:41:30.518Z,54.45
2018-08-19T08:43:56.491Z,54.38
2018-08-19T08:46:22.463Z,54.54
2018-08-19T08:48:48.480Z,53.30
2018-08-19T08:51:14.477Z,54.30
2018-08-19T08:53:40.474Z,53.94
2018-08-19T08:56:06.480Z,54.55
2018-08-19T08:58:32.474Z,54.10
2018-08-19T09:00:58.549Z,54.41
2018-08-19T09:03:24.592Z,54.06
2018-08-19T09:05:50.708Z,53.90
2018-08-19T09:08:17.225Z,54.02
2018-08-19T09:10:43.219Z,55.60
2018-08-19T09:13:09.424Z,54.94
2018-08-19T09:15:35.498Z,54.20
2018-08-19T09:18:01.501Z,54.22
2018-08-19T09:20:28.568Z,53.98
2018-08-19T09:22:54.683Z,54.12
2018-08-19T09:25:20.640Z,54.02
2018-08-19T09:27:46.645Z,54.08
2018-08-19T09:30:13.427Z,53.45
2018-08-19T09:32:39.446Z,54.63
2018-08-19T09:35:05.462Z,53.80
2018-08-19T09:37:31.552Z,53.97
2018-08-19T09:39:58.002Z,52.59
2018-08-19T09:42:24.024Z,53.43
2018-08-19T09:44:50.003Z,52.44
2018-08-19T09:47:16.008Z,53.39
2018-08-19T09:49:42.016Z,53.58
2018-08-19T09:52:08.030Z,52.17
2018-08-19T09:54:34.048Z,52.68
2018-08-19T09:57:00.049Z,52.93
2018-08-19T09:59:26.035Z,52.71
2018-08-19T10:01:52.045Z,52.56
2018-08-19T10:04:18.062Z,52.03
2018-08-19T10:06:44.055Z,52.27
2018-08-19T10:09:10.238Z,52.73
2018-08-19T10:11:37.377Z,53.29
2018-08-19T10:14:03.365Z,53.72
2018-08-19T10:16:29.371Z,52.91
2018-08-19T10:18:55.531Z,52.67
2018-08-19T10:21:21.580Z,52.20
2018-08-19T10:23:47.584Z,53.36
2018-08-19T10:26:13.729Z,53.74
2018-08-19T10:28:39.700Z,53.49
2018-08-19T10:31:05.724Z,52.99
2018-08-19T10:33:31.732Z,52.81
2018-08-19T10:35:57.697Z,53.95
2018-08-19T10:38:23.732Z,54.38
2018-08-19T10:40:49.735Z,54.10
2018-08-19T10:43:15.735Z,52.62
2018-08-19T10:45:41.807Z,52.50
2018-08-19T10:48:07.781Z,53.13
2018-08-19T10:50:33.772Z,52.91
2018-08-19T10:52:59.764Z,53.25
2018-08-19T10:55:25.739Z,53.59
2018-08-19T10:57:51.963Z,53.38
2018-08-19T11:00:17.982Z,53.51
2018-08-19T11:02:45.069Z,53.41
2018-08-19T11:05:11.044Z,52.48
2018-08-19T11:07:38.191Z,54.38
2018-08-19T11:10:04.274Z,54.05
2018-08-19T11:12:30.293Z,53.85
2018-08-19T11:14:56.320Z,51.95
2018-08-19T11:17:22.340Z,52.50
2018-08-19T11:19:48.372Z,53.48
2018-08-19T11:22:14.399Z,53.51
2018-08-19T11:24:40.461Z,53.53
2018-08-19T11:27:06.446Z,53.54
2018-08-19T11:29:32.549Z,53.05
2018-08-19T11:31:58.639Z,53.87
2018-08-19T11:34:24.738Z,53.35
2018-08-19T11:36:50.854Z,54.04
2018-08-19T11:39:16.838Z,53.23
2018-08-19T11:41:42.951Z,54.06
2018-08-19T11:44:09.260Z,52.92
2018-08-19T11:46:35.352Z,53.58
2018-08-19T11:49:01.324Z,53.51
2018-08-19T11:51:27.640Z,52.64
2018-08-19T11:53:53.721Z,52.39
2018-08-19T11:56:19.954Z,52.15
2018-08-19T11:58:45.944Z,52.91
2018-08-19T12:01:11.962Z,54.89
2018-08-19T12:03:38.042Z,53.28
2018-08-19T12:06:04.057Z,54.19
2018-08-19T12:08:30.074Z,53.40
2018-08-19T12:10:56.134Z,54.39
2018-08-19T12:13:22.117Z,54.64
2018-08-19T12:15:48.194Z,54.15
2018-08-19T12:18:14.152Z,53.95
2018-08-19T12:20:40.191Z,53.52
2018-08-19T12:23:06.179Z,53.77
2018-08-19T12:25:32.218Z,53.84
2018-08-19T12:27:58.186Z,54.32
2018-08-19T12:30:24.154Z,53.72
2018-08-19T12:32:50.151Z,54.68
2018-08-19T12:35:16.273Z,53.90
2018-08-19T12:37:42.315Z,54.46
2018-08-19T12:40:08.275Z,53.86
2018-08-19T12:42:34.285Z,55.45
2018-08-19T12:45:00.277Z,53.59
2018-08-19T12:47:26.281Z,53.95
2018-08-19T12:49:52.280Z,53.33
2018-08-19T12:52:18.273Z,53.69
2018-08-19T12:54:44.269Z,53.84
2018-08-19T12:57:10.281Z,54.15
2018-08-19T12:59:36.277Z,53.31
2018-08-19T13:02:02.298Z,54.52
2018-08-19T13:04:28.276Z,54.30
2018-08-19T13:06:54.271Z,55.42
2018-08-19T13:09:20.250Z,53.76
2018-08-19T13:11:46.240Z,54.23
2018-08-19T13:14:12.208Z,54.88
2018-08-19T13:16:38.336Z,54.62
2018-08-19T13:19:04.349Z,53.60
2018-08-19T13:21:30.439Z,54.50
2018-08-19T13:23:56.433Z,54.35
2018-08-19T13:26:22.437Z,54.03
2018-08-19T13:28:48.430Z,55.52
2018-08-19T13:31:14.399Z,55.32
2018-08-19T13:33:40.439Z,54.14
2018-08-19T13:36:06.474Z,54.15
2018-08-19T13:38:32.488Z,54.16
2018-08-19T13:40:58.568Z,55.64
2018-08-19T13:43:24.587Z,54.21
2018-08-19T13:45:50.615Z,55.09
2018-08-19T13:48:16.606Z,54.36
2018-08-19T13:50:42.592Z,54.48
2018-08-19T13:53:08.573Z,56.15
2018-08-19T13:55:34.642Z,55.61
2018-08-19T13:58:00.633Z,54.06
2018-08-19T14:00:26.634Z,55.23
2018-08-19T14:02:52.646Z,54.89
2018-08-19T14:05:18.719Z,54.67
2018-08-19T14:07:44.760Z,55.47
2018-08-19T14:10:10.732Z,55.79
2018-08-19T14:12:36.748Z,54.42
2018-08-19T14:15:02.721Z,54.66
2018-08-19T14:17:28.701Z,55.15
2018-08-19T14:19:54.685Z,55.45
2018-08-19T14:22:20.680Z,54.75
2018-08-19T14:24:46.645Z,54.52
2018-08-19T14:27:12.712Z,54.83
2018-08-19T14:29:38.608Z,54.91
2018-08-19T14:32:04.746Z,55.70
2018-08-19T14:34:30.732Z,55.45
2018-08-19T14:36:56.751Z,54.59
2018-08-19T14:39:22.734Z,54.83
2018-08-19T14:41:48.731Z,54.71
2018-08-19T14:44:14.706Z,56.09
2018-08-19T14:46:40.719Z,55.47
2018-08-19T14:49:06.708Z,55.79
2018-08-19T14:51:32.914Z,56.22
2018-08-19T14:53:58.899Z,56.17
2018-08-19T14:56:24.895Z,55.09
2018-08-19T14:58:50.917Z,54.89
2018-08-19T15:01:16.905Z,55.58
2018-08-19T15:03:42.940Z,55.19
2018-08-19T15:06:08.968Z,55.20
2018-08-19T15:08:36.145Z,55.48
2018-08-19T15:11:02.170Z,56.10
2018-08-19T15:13:28.149Z,55.12
2018-08-19T15:15:54.281Z,55.35
2018-08-19T15:18:20.260Z,55.65
2018-08-19T15:20:46.261Z,55.06
2018-08-19T15:23:12.505Z,55.15
2018-08-19T15:25:38.499Z,55.16
2018-08-19T15:28:04.466Z,56.29
2018-08-19T15:30:30.486Z,56.34
2018-08-19T15:32:56.867Z,55.70
2018-08-19T15:35:22.600Z,56.17
2018-08-19T15:37:48.575Z,55.30
2018-08-19T15:40:14.553Z,56.24
2018-08-19T15:42:40.590Z,55.30
2018-08-19T15:45:06.657Z,54.86
2018-08-19T15:47:32.715Z,55.34
2018-08-19T15:49:58.724Z,56.64
2018-08-19T15:52:24.743Z,55.52
2018-08-19T15:54:50.752Z,56.27
2018-08-19T15:57:16.735Z,55.96
2018-08-19T15:59:42.729Z,55.24
2018-08-19T16:02:08.733Z,56.05
2018-08-19T16:04:34.729Z,55.12
2018-08-19T16:07:00.713Z,55.98
2018-08-19T16:09:26.677Z,55.06
2018-08-19T16:11:52.659Z,55.80
2018-08-19T16:14:18.665Z,56.06
2018-08-19T16:16:44.648Z,56.15
2018-08-19T16:19:10.672Z,56.76
2018-08-19T16:21:36.646Z,56.12
2018-08-19T16:24:02.651Z,55.45
2018-08-19T16:26:28.629Z,56.27
2018-08-19T16:28:54.616Z,55.57
2018-08-19T16:31:20.709Z,56.85
2018-08-19T16:33:46.704Z,55.29
2018-08-19T16:36:12.669Z,56.28
2018-08-19T16:38:38.653Z,56.02
2018-08-19T16:41:04.647Z,55.20
2018-08-19T16:43:30.644Z,56.05
2018-08-19T16:45:56.633Z,56.51
2018-08-19T16:48:22.710Z,56.22
2018-08-19T16:50:48.777Z,55.59
2018-08-19T16:53:14.746Z,55.33
2018-08-19T16:55:40.778Z,55.86
2018-08-19T16:58:06.784Z,55.88
2018-08-19T17:00:32.777Z,56.08
2018-08-19T17:02:58.887Z,56.13
2018-08-19T17:05:24.791Z,55.90
2018-08-19T17:07:50.781Z,56.05
2018-08-19T17:10:16.904Z,55.07
2018-08-19T17:12:42.799Z,55.26
2018-08-19T17:15:08.800Z,56.23
2018-08-19T17:17:34.858Z,55.38
2018-08-19T17:20:00.843Z,55.38
2018-08-19T17:22:26.898Z,55.47
2018-08-19T17:24:52.850Z,56.39
2018-08-19T17:27:18.836Z,55.36
2018-08-19T17:29:44.833Z,55.06
2018-08-19T17:32:10.820Z,55.24
2018-08-19T17:34:36.841Z,56.26
2018-08-19T17:37:02.863Z,56.40
2018-08-19T17:39:28.959Z,55.42
2018-08-19T17:41:54.849Z,55.85
2018-08-19T17:44:20.830Z,56.57
2018-08-19T17:46:46.840Z,56.03
2018-08-19T17:49:12.833Z,56.26
2018-08-19T17:51:38.825Z,55.62
2018-08-19T17:54:04.807Z,55.65
2018-08-19T17:56:30.797Z,57.09
2018-08-19T17:58:56.800Z,56.11
2018-08-19T18:01:22.816Z,56.29
2018-08-19T18:03:48.804Z,56.10
2018-08-19T18:06:14.776Z,56.22
2018-08-19T18:08:40.746Z,55.66
2018-08-19T18:11:06.791Z,55.55
2018-08-19T18:13:32.803Z,55.70
2018-08-19T18:15:58.774Z,56.44
2018-08-19T18:18:24.745Z,56.16
2018-08-19T18:20:50.755Z,56.00
2018-08-19T18:23:16.731Z,56.66
2018-08-19T18:25:42.739Z,56.19
2018-08-19T18:28:08.740Z,56.48
2018-08-19T18:30:34.717Z,56.09
2018-08-19T18:33:00.764Z,55.79
2018-08-19T18:35:26.757Z,55.79
2018-08-19T18:37:52.742Z,55.21
2018-08-19T18:40:18.733Z,56.24
2018-08-19T18:42:44.720Z,55.92
2018-08-19T18:45:10.692Z,56.23
2018-08-19T18:47:36.661Z,55.99
2018-08-19T18:50:02.637Z,56.60
2018-08-19T18:52:28.633Z,55.76
2018-08-19T18:54:54.617Z,56.16
2018-08-19T18:57:20.580Z,56.15
2018-08-19T18:59:46.561Z,55.99
2018-08-19T19:02:12.592Z,56.27
2018-08-19T19:04:38.574Z,56.03
2018-08-19T19:07:04.577Z,56.29
2018-08-19T19:09:30.730Z,56.81
2018-08-19T19:11:56.758Z,56.34
2018-08-19T19:14:22.882Z,56.53
2018-08-19T19:16:48.990Z,56.33
2018-08-19T19:19:15.191Z,55.50
2018-08-19T19:21:41.457Z,56.55
2018-08-19T19:24:07.500Z,56.40
2018-08-19T19:26:33.493Z,56.36
2018-08-19T19:28:59.471Z,57.00
2018-08-19T19:31:25.446Z,56.96
2018-08-19T19:33:51.665Z,56.00
2018-08-19T19:36:17.706Z,56.37
2018-08-19T19:38:43.912Z,56.80
2018-08-19T19:41:10.179Z,56.23
2018-08-19T19:43:36.255Z,56.44
2018-08-19T19:46:02.263Z,56.63
2018-08-19T19:48:28.257Z,56.71
2018-08-19T19:50:54.296Z,56.11
2018-08-19T19:53:20.339Z,56.64
2018-08-19T19:55:46.328Z,56.09
2018-08-19T19:58:12.316Z,56.28
2018-08-19T20:00:38.318Z,56.02
2018-08-19T20:03:04.300Z,56.27
2018-08-19T20:05:30.294Z,55.97
2018-08-19T20:07:56.618Z,55.23
2018-08-19T20:10:22.590Z,55.41
2018-08-19T20:12:48.660Z,55.79
2018-08-19T20:15:14.632Z,57.21
2018-08-19T20:17:40.630Z,56.89
2018-08-19T20:20:07.050Z,57.16
2018-08-19T20:22:33.050Z,57.04
2018-08-19T20:24:59.036Z,56.36
2018-08-19T20:27:25.012Z,57.43
2018-08-19T20:29:51.010Z,57.16
2018-08-19T20:32:17.030Z,58.00
2018-08-19T20:34:43.018Z,56.73
2018-08-19T20:37:09.016Z,57.65
2018-08-19T20:39:35.089Z,56.28
2018-08-19T20:42:01.117Z,56.51
2018-08-19T20:44:27.121Z,56.54
2018-08-19T20:46:53.136Z,56.65
2018-08-19T20:49:19.105Z,56.31
2018-08-19T20:51:45.129Z,56.22
2018-08-19T20:54:11.483Z,57.37
2018-08-19T20:56:37.755Z,56.77
2018-08-19T20:59:03.925Z,57.48
2018-08-19T21:01:29.890Z,57.74
2018-08-19T21:03:55.882Z,57.88
2018-08-19T21:06:21.900Z,58.00
2018-08-19T21:08:47.944Z,58.09
2018-08-19T21:11:13.931Z,56.30
2018-08-19T21:13:39.895Z,56.29
2018-08-19T21:16:05.917Z,55.89
2018-08-19T21:18:31.889Z,55.85
2018-08-19T21:20:58.895Z,56.46
2018-08-19T21:23:24.925Z,56.84
2018-08-19T21:25:50.903Z,56.35
2018-08-19T21:28:18.955Z,56.10
2018-08-19T21:30:44.910Z,56.22
2018-08-19T21:33:10.909Z,56.83
2018-08-19T21:35:36.912Z,56.13
2018-08-19T21:40:37.989Z,56.10
2018-08-19T21:43:03.915Z,56.62
2018-08-19T21:45:29.953Z,56.35
2018-08-19T21:47:55.949Z,56.56
2018-08-19T21:50:22.852Z,55.51
2018-08-19T21:52:48.887Z,55.95
2018-08-19T21:55:14.899Z,57.08
2018-08-19T21:57:40.869Z,56.89
2018-08-19T22:00:06.877Z,56.87
2018-08-19T22:02:32.862Z,56.48
2018-08-19T22:04:58.889Z,56.11
2018-08-19T22:07:24.874Z,56.66
2018-08-19T22:09:50.860Z,56.66
2018-08-19T22:12:16.877Z,55.91
2018-08-19T22:14:42.864Z,56.01
2018-08-19T22:19:44.076Z,56.51
2018-08-19T22:22:10.044Z,55.72
2018-08-19T22:24:36.021Z,56.46
2018-08-19T22:27:05.858Z,56.50
2018-08-19T22:29:31.854Z,55.64
2018-08-19T22:31:57.846Z,56.75
2018-08-19T22:34:23.855Z,56.37
2018-08-19T22:36:49.828Z,56.23
2018-08-19T22:39:15.788Z,55.70
2018-08-19T22:41:41.791Z,56.46
2018-08-19T22:44:07.792Z,55.40
2018-08-19T22:46:33.776Z,56.02
2018-08-19T22:48:59.829Z,55.93
2018-08-19T22:51:30.437Z,55.99
2018-08-19T22:53:56.522Z,56.78
2018-08-19T22:56:22.485Z,55.73
2018-08-19T22:58:52.206Z,56.65
2018-08-19T23:01:18.185Z,56.66
2018-08-19T23:03:44.264Z,55.67
2018-08-19T23:06:10.237Z,55.79
2018-08-19T23:08:36.215Z,56.52
2018-08-19T23:11:02.244Z,56.58
2018-08-19T23:13:28.236Z,56.72
2018-08-19T23:15:54.196Z,55.60
2018-08-19T23:18:20.162Z,54.71
2018-08-19T23:20:46.362Z,55.18
2018-08-19T23:23:12.347Z,55.85
2018-08-19T23:25:41.910Z,55.78
2018-08-19T23:28:07.868Z,56.06
2018-08-19T23:30:33.840Z,56.00
2018-08-19T23:32:59.815Z,55.50
2018-08-19T23:35:25.809Z,55.61
2018-08-19T23:37:51.790Z,55.90
2018-08-19T23:40:17.766Z,55.96
2018-08-19T23:42:43.791Z,56.75
2018-08-19T23:45:11.871Z,56.48
2018-08-19T23:47:37.847Z,55.57
2018-08-19T23:50:03.852Z,55.62
2018-08-19T23:52:29.828Z,56.55
2018-08-19T23:54:57.799Z,56.11
2018-08-19T23:57:23.767Z,57.72
2018-08-19T23:59:49.754Z,57.14
